Time;durP1;ratioP1;P1;durP2;ratioP2;P2;SDS_P1;SDS_P2;PMS_P1;PMS_P2;Temp;Humidity;BMP_temperature;BMP_pressure;BME280_temperature;BME280_humidity;BME280_pressure;Samples;Min_cycle;Max_cycle;Signal;HPM_P1;HPM_P2
2022/05/22 00:01:58;;;;;;;7.57;2.60;;;;;;;17.43;57.41;100787.19;4173821;28;20048;-64
2022/05/22 00:04:02;;;;;;;7.07;2.67;;;;;;;17.36;57.34;100787.22;4176867;28;20033;-64
2022/05/22 00:06:04;;;;;;;6.35;2.50;;;;;;;17.33;56.75;100797.75;4170548;28;20044;-64
2022/05/22 00:08:08;;;;;;;6.45;2.67;;;;;;;17.27;56.38;100790.78;4171225;28;20076;-64
2022/05/22 00:10:11;;;;;;;7.20;2.92;;;;;;;17.23;56.85;100791.69;4174550;28;20484;-64
2022/05/22 00:12:15;;;;;;;9.02;3.47;;;;;;;17.24;56.93;100788.19;4176196;28;20047;-64
2022/05/22 00:14:19;;;;;;;10.02;3.05;;;;;;;17.20;57.36;100790.00;4179370;28;20036;-64
2022/05/22 00:16:41;;;;;;;7.35;2.80;;;;;;;17.19;57.89;100779.50;4171762;28;20460;-64
2022/05/22 00:18:49;;;;;;;5.07;2.78;;;;;;;17.06;58.48;100776.94;4179724;28;20482;-64
2022/05/22 00:20:52;;;;;;;5.35;2.38;;;;;;;17.05;59.12;100783.06;4184652;28;20040;-64
2022/05/22 00:22:55;;;;;;;7.78;2.80;;;;;;;17.08;58.77;100787.44;4173699;28;20055;-64
2022/05/22 00:24:58;;;;;;;5.15;2.55;;;;;;;17.07;58.70;100786.59;4173742;28;20468;-64
2022/05/22 00:27:02;;;;;;;5.35;2.90;;;;;;;17.06;59.23;100783.97;4179015;28;20041;-64
2022/05/22 00:29:10;;;;;;;4.70;2.70;;;;;;;17.04;59.58;100786.59;4172104;28;20083;-64
2022/05/22 00:31:14;;;;;;;4.53;2.70;;;;;;;16.96;60.17;100785.78;4164211;28;20136;-64
2022/05/22 00:33:17;;;;;;;6.88;2.83;;;;;;;16.87;60.05;100778.84;4182707;28;20029;-65
2022/05/22 00:35:20;;;;;;;7.22;2.80;;;;;;;16.72;60.07;100779.78;4170957;28;20040;-64
2022/05/22 00:37:23;;;;;;;8.07;3.88;;;;;;;16.61;59.62;100786.84;4163383;28;20411;-64
2022/05/22 00:39:29;;;;;;;7.00;2.70;;;;;;;16.57;59.70;100785.09;4172175;28;20041;-64
2022/05/22 00:41:34;;;;;;;12.95;3.30;;;;;;;16.59;59.41;100778.09;4160979;28;20045;-64
2022/05/22 00:43:40;;;;;;;8.63;3.00;;;;;;;16.65;59.17;100772.81;4183084;28;20072;-64
2022/05/22 00:45:44;;;;;;;7.50;3.08;;;;;;;16.67;59.47;100776.28;4176984;28;20367;-64
2022/05/22 00:47:47;;;;;;;6.72;3.50;;;;;;;16.67;59.09;100776.28;4179857;28;20131;-64
2022/05/22 00:49:51;;;;;;;12.38;4.00;;;;;;;16.64;59.25;100765.81;4168236;28;20129;-65
2022/05/22 00:51:58;;;;;;;7.05;2.63;;;;;;;16.61;59.47;100764.97;4176928;28;20120;-65
2022/05/22 00:54:05;;;;;;;6.53;2.58;;;;;;;16.58;60.13;100771.09;4169858;28;20047;-65
2022/05/22 00:56:13;;;;;;;9.25;2.83;;;;;;;16.58;60.06;100768.47;4164229;28;20037;-65
2022/05/22 00:58:20;;;;;;;10.23;3.28;;;;;;;16.62;59.10;100766.69;4164895;28;20037;-65
2022/05/22 01:00:27;;;;;;;5.28;2.47;;;;;;;16.66;59.39;100774.56;4169396;28;20044;-65
2022/05/22 01:03:26;;;;;;;4.80;2.38;;;;;;;16.65;58.64;100775.44;4173768;28;20036;-65
2022/05/22 01:04:55;;;;;;;8.05;3.00;;;;;;;16.58;58.84;100781.59;4181819;28;20103;-65
2022/05/22 01:06:58;;;;;;;5.57;2.35;;;;;;;16.60;58.13;100776.34;4186313;28;20032;-65
2022/05/22 01:09:01;;;;;;;5.68;3.13;;;;;;;16.61;58.50;100781.59;4183947;28;20426;-65
2022/05/22 01:11:10;;;;;;;5.57;2.38;;;;;;;16.66;57.97;100777.19;4170576;28;20037;-65
2022/05/22 01:13:15;;;;;;;4.57;2.72;;;;;;;16.72;57.21;100776.28;4177155;28;20048;-65
2022/05/22 01:15:17;;;;;;;;;;;;;;;16.55;57.56;100776.38;4173533;28;20040;-65
2022/05/22 01:17:20;;;;;;;5.40;2.25;;;;;;;16.61;57.75;100776.34;4177486;28;19920;-66
2022/05/22 01:19:24;;;;;;;5.53;2.15;;;;;;;16.60;58.43;100774.59;4165583;28;20044;-65
2022/05/22 01:21:30;;;;;;;8.80;2.42;;;;;;;16.56;58.60;100765.88;4174314;28;20510;-65
2022/05/22 01:23:34;;;;;;;7.13;2.83;;;;;;;16.59;59.11;100772.88;4169142;28;20047;-65
2022/05/22 01:25:42;;;;;;;5.75;2.75;;;;;;;16.60;58.58;100774.59;4163242;28;20069;-65
2022/05/22 01:27:45;;;;;;;4.53;2.28;;;;;;;16.65;58.59;100778.06;4169386;28;20542;-65
2022/05/22 01:29:51;;;;;;;4.93;2.50;;;;;;;16.65;57.15;100778.06;4169885;28;20052;-65
2022/05/22 01:31:54;;;;;;;4.80;2.38;;;;;;;16.66;57.96;100771.94;4171423;28;20080;-65
2022/05/22 01:33:57;;;;;;;8.40;2.75;;;;;;;16.70;57.33;100772.78;4176195;28;20037;-65
2022/05/22 01:36:01;;;;;;;8.18;2.63;;;;;;;16.69;58.01;100760.53;4179953;28;20037;-65
2022/05/22 01:38:06;;;;;;;4.55;2.40;;;;;;;16.63;58.37;100760.56;4189290;28;20502;-65
2022/05/22 01:40:15;;;;;;;5.53;2.35;;;;;;;16.58;57.72;100761.47;4151735;28;20052;-65
2022/05/22 01:42:17;;;;;;;4.53;2.15;;;;;;;16.54;58.25;100764.13;4180823;28;20073;-65
2022/05/22 01:44:21;;;;;;;5.97;2.97;;;;;;;16.53;57.64;100759.78;4176667;28;20418;-65
2022/05/22 01:46:24;;;;;;;3.67;2.05;;;;;;;16.52;57.75;100760.66;4153148;28;20045;-65
2022/05/22 01:48:46;;;;;;;10.27;2.75;;;;;;;16.50;57.62;100760.66;4173459;28;20394;-65
2022/05/22 01:50:54;;;;;;;5.35;2.47;;;;;;;16.49;57.57;100758.03;4170239;28;20033;-65
2022/05/22 01:52:57;;;;;;;5.57;2.33;;;;;;;16.35;57.58;100750.22;4175146;28;20120;-65
2022/05/22 01:55:00;;;;;;;8.15;2.65;;;;;;;16.29;57.53;100748.50;4163848;28;20564;-65
2022/05/22 01:57:05;;;;;;;2.33;2.00;;;;;;;16.29;57.50;100748.50;4179365;28;20061;-65
2022/05/22 01:59:08;;;;;;;4.57;2.13;;;;;;;16.25;57.35;100752.00;4179208;28;20545;-64
2022/05/22 02:01:15;;;;;;;5.05;2.60;;;;;;;16.21;57.67;100760.81;4182563;28;20045;-65
2022/05/22 02:03:18;;;;;;;5.15;2.28;;;;;;;16.17;57.27;100748.56;4168453;28;20036;-65
2022/05/22 02:05:22;;;;;;;6.93;2.63;;;;;;;16.18;57.55;100750.31;4183696;28;20057;-65
2022/05/22 02:09:47;;;;;;;4.85;2.50;;;;;;;16.10;57.09;100746.84;4183478;28;20325;-65
2022/05/22 02:11:50;;;;;;;5.20;2.33;;;;;;;16.01;57.31;100753.00;4197858;28;20046;-65
2022/05/22 02:13:54;;;;;;;7.15;2.30;;;;;;;16.07;57.23;100746.88;4171119;28;20135;-65
2022/05/22 02:15:58;;;;;;;5.82;2.30;;;;;;;16.00;57.25;100746.91;4175352;28;20037;-65
2022/05/22 02:18:04;;;;;;;4.47;2.90;;;;;;;15.99;57.46;100752.13;4179077;28;20029;-65
2022/05/22 02:20:08;;;;;;;5.20;2.65;;;;;;;15.99;56.80;100742.53;4176289;28;20120;-65
2022/05/22 02:22:15;;;;;;;4.28;2.40;;;;;;;16.00;57.08;100741.66;4177184;28;20036;-65
2022/05/22 02:24:18;;;;;;;5.20;2.63;;;;;;;16.04;57.31;100743.34;4167596;28;20125;-65
2022/05/22 02:26:32;;;;;;;8.85;3.05;;;;;;;16.02;57.79;100742.50;4167430;28;20136;-65
2022/05/22 02:28:35;;;;;;;4.90;2.47;;;;;;;15.96;58.47;100733.78;4152498;28;20053;-65
2022/05/22 02:30:43;;;;;;;6.43;2.47;;;;;;;15.92;58.61;100738.19;4175432;28;20037;-65
2022/05/22 02:32:48;;;;;;;9.93;2.88;;;;;;;15.91;58.15;100733.78;4179519;28;20465;-65
2022/05/22 02:34:51;;;;;;;4.80;2.40;;;;;;;15.92;58.08;100726.81;4172108;28;20124;-65
2022/05/22 02:36:55;;;;;;;5.35;1.95;;;;;;;15.89;58.43;100722.47;4190305;28;20384;-65
2022/05/22 02:38:58;;;;;;;5.35;2.45;;;;;;;15.75;58.70;100711.09;4184586;28;20036;-65
2022/05/22 02:41:01;;;;;;;7.53;2.83;;;;;;;15.70;59.03;100705.88;4152152;28;20121;-65
2022/05/22 02:43:04;;;;;;;6.38;2.58;;;;;;;15.69;58.77;100705.00;4178644;28;20402;-65
2022/05/22 02:45:08;;;;;;;4.28;2.20;;;;;;;15.68;58.72;100712.84;4182525;28;20039;-64
2022/05/22 02:47:13;;;;;;;5.45;2.47;;;;;;;15.68;59.20;100703.28;4185250;28;20041;-64
2022/05/22 02:49:15;;;;;;;4.97;2.88;;;;;;;15.64;59.26;100704.16;4186998;28;20033;-64
2022/05/22 02:51:21;;;;;;;5.47;2.65;;;;;;;15.69;59.53;100709.38;4179776;28;20405;-64
2022/05/22 02:53:24;;;;;;;5.50;2.25;;;;;;;15.67;60.34;100696.28;4175999;28;20123;-64
2022/05/22 02:55:45;;;;;;;5.15;2.25;;;;;;;15.58;60.51;100698.94;4170080;28;20037;-64
2022/05/22 02:57:49;;;;;;;6.43;2.67;;;;;;;15.62;60.45;100708.50;4172367;28;20065;-64
2022/05/22 02:59:54;;;;;;;4.65;2.67;;;;;;;15.58;60.94;100711.13;4169462;28;20037;-64
2022/05/22 03:02:09;;;;;;;4.10;2.63;;;;;;;15.49;60.95;100709.41;4171709;28;20406;-64
2022/05/22 03:04:14;;;;;;;5.40;2.17;;;;;;;15.50;61.09;100712.03;4175505;28;20143;-64
2022/05/22 03:08:38;;;;;;;6.05;2.63;;;;;;;15.46;62.03;100712.03;4169725;28;20128;-64
2022/05/22 03:10:41;;;;;;;4.95;2.40;;;;;;;15.50;61.42;100716.41;4186708;28;20033;-64
2022/05/22 03:12:45;;;;;;;8.18;3.20;;;;;;;15.49;61.95;100706.78;4174784;28;20076;-65
2022/05/22 03:14:55;;;;;;;7.22;2.33;;;;;;;15.47;61.74;100705.94;4184257;28;20107;-64
2022/05/22 03:16:58;;;;;;;8.32;2.70;;;;;;;15.48;61.45;100705.06;4178279;28;20145;-64
2022/05/22 03:19:08;;;;;;;4.03;2.50;;;;;;;15.45;60.60;100702.44;4197942;28;20119;-64
2022/05/22 03:21:13;;;;;;;4.57;2.63;;;;;;;15.47;60.81;100698.06;4178456;28;20462;-64
2022/05/22 03:23:17;;;;;;;5.22;2.75;;;;;;;15.47;60.52;100703.31;4173218;28;20092;-64
2022/05/22 03:25:20;;;;;;;6.63;2.95;;;;;;;15.47;60.88;100704.19;4182584;28;20069;-64
2022/05/22 03:27:23;;;;;;;10.05;3.05;;;;;;;15.47;60.57;100698.06;4181968;28;20059;-64
2022/05/22 03:29:29;;;;;;;7.18;3.78;;;;;;;15.43;60.56;100685.84;4166175;28;20052;-64
2022/05/22 03:31:32;;;;;;;4.47;2.90;;;;;;;15.38;60.56;100687.63;4173028;28;20768;-64
2022/05/22 03:33:35;;;;;;;6.72;3.10;;;;;;;15.37;60.16;100689.34;4166945;28;20659;-64
2022/05/22 03:35:38;;;;;;;5.80;2.60;;;;;;;15.36;60.74;100688.50;4159380;28;20104;-64
2022/05/22 03:37:47;;;;;;;5.53;2.55;;;;;;;15.35;60.06;100681.50;4182612;28;20444;-64
2022/05/22 03:39:50;;;;;;;5.05;2.72;;;;;;;15.32;60.07;100678.88;4167016;28;20037;-64
2022/05/22 03:41:54;;;;;;;6.78;3.30;;;;;;;15.28;60.61;100682.38;4174152;28;20055;-64
2022/05/22 03:43:59;;;;;;;6.50;2.88;;;;;;;15.27;60.52;100685.88;4178324;28;20095;-64
2022/05/22 03:46:09;;;;;;;6.88;2.95;;;;;;;15.26;59.65;100684.16;4177754;28;20444;-64
2022/05/22 03:48:15;;;;;;;7.68;3.00;;;;;;;15.16;59.93;100683.28;4173805;28;20090;-64
2022/05/22 03:50:20;;;;;;;6.63;2.63;;;;;;;15.08;60.31;100699.88;4172485;28;20033;-64
2022/05/22 03:52:24;;;;;;;7.13;3.28;;;;;;;15.03;60.83;100691.16;4184703;28;20068;-64
2022/05/22 03:54:30;;;;;;;5.80;3.13;;;;;;;14.97;60.65;100694.66;4190636;28;20044;-64
2022/05/22 03:56:36;;;;;;;6.00;3.25;;;;;;;14.97;60.37;100686.78;4163235;28;20603;-64
2022/05/22 03:58:40;;;;;;;7.63;3.15;;;;;;;15.03;60.96;100683.31;4164318;28;20064;-64
2022/05/22 04:00:44;;;;;;;7.97;3.20;;;;;;;15.08;60.39;100684.16;4185645;28;20041;-64
2022/05/22 04:02:48;;;;;;;6.65;3.05;;;;;;;15.11;60.02;100692.00;4175649;28;20040;-64
2022/05/22 04:04:53;;;;;;;8.40;3.40;;;;;;;15.13;59.70;100691.13;4167740;28;20036;-64
2022/05/22 04:07:00;;;;;;;10.05;3.47;;;;;;;15.13;60.30;100687.66;4184906;28;20044;-64
2022/05/22 04:09:03;;;;;;;7.75;2.90;;;;;;;15.14;59.98;100684.13;4194406;28;20028;-64
2022/05/22 04:11:33;;;;;;;7.35;3.20;;;;;;;15.13;59.82;100682.41;4171896;28;20103;-64
2022/05/22 04:13:40;;;;;;;10.75;3.63;;;;;;;15.16;59.73;100682.41;4179816;28;20044;-64
2022/05/22 04:15:44;;;;;;;11.93;4.00;;;;;;;15.18;59.52;100675.41;4179384;28;20132;-64
2022/05/22 04:17:47;;;;;;;8.30;4.55;;;;;;;15.23;59.22;100681.53;4180774;28;20033;-64
2022/05/22 04:19:54;;;;;;;6.57;3.58;;;;;;;15.23;59.48;100676.28;4179129;28;21521;-64
2022/05/22 04:21:57;;;;;;;8.52;3.22;;;;;;;15.25;59.53;100679.78;4183425;28;20449;-64
2022/05/22 04:26:28;;;;;;;7.30;3.45;;;;;;;15.26;59.27;100678.91;4173538;28;20461;-64
2022/05/22 04:28:34;;;;;;;10.05;3.10;;;;;;;15.29;60.32;100662.31;4180318;28;20072;-64
2022/05/22 04:30:45;;;;;;;9.75;3.38;;;;;;;15.33;59.88;100670.16;4181957;28;20055;-64
2022/05/22 04:32:49;;;;;;;9.52;3.30;;;;;;;15.42;59.87;100669.28;4171530;28;20067;-64
2022/05/22 04:34:52;;;;;;;8.57;3.30;;;;;;;15.47;59.97;100666.63;4175324;28;20031;-64
2022/05/22 04:36:55;;;;;;;7.85;2.85;;;;;;;15.52;59.92;100671.00;4179813;28;20037;-64
2022/05/22 04:39:25;;;;;;;8.40;3.47;;;;;;;15.57;59.66;100672.72;4176087;28;20534;-64
2022/05/22 04:41:34;;;;;;;8.07;3.55;;;;;;;15.60;60.08;100673.56;4153224;28;20053;-64
2022/05/22 04:43:39;;;;;;;8.95;3.10;;;;;;;15.62;60.02;100674.44;4180564;28;20133;-64
2022/05/22 04:45:42;;;;;;;;;;;;;;;15.48;60.00;100657.91;4180155;28;20159;-64
2022/05/22 04:47:56;;;;;;;6.45;2.97;;;;;;;15.57;60.92;100660.50;4170894;28;19921;-65
2022/05/22 04:50:14;;;;;;;9.88;2.72;;;;;;;15.58;60.72;100654.38;4165809;28;20449;-64
2022/05/22 04:52:36;;;;;;;4.70;2.33;;;;;;;15.51;60.36;100648.28;4167228;28;20045;-64
2022/05/22 04:54:39;;;;;;;5.38;2.25;;;;;;;15.71;63.48;100650.84;4183116;28;20047;-61
2022/05/22 04:56:42;;;;;;;3.17;2.10;;;;;;;16.25;62.55;100659.34;4179177;28;20044;-61
2022/05/22 04:58:56;;;;;;;6.05;2.58;;;;;;;16.73;60.33;100658.13;4192432;28;20043;-61
2022/05/22 05:01:06;;;;;;;8.30;3.00;;;;;;;17.07;58.90;100644.72;4174007;28;20047;-61
2022/05/22 05:03:15;;;;;;;9.93;2.97;;;;;;;17.32;57.21;100643.59;4179232;28;20044;-61
2022/05/22 05:05:18;;;;;;;8.88;2.92;;;;;;;17.49;56.43;100640.78;4147360;28;20050;-63
2022/05/22 05:07:21;;;;;;;4.53;2.50;;;;;;;17.56;55.98;100632.81;4175678;28;20033;-61
2022/05/22 05:09:36;;;;;;;7.82;2.30;;;;;;;17.67;56.30;100630.06;4179886;28;20445;-61
2022/05/22 05:11:45;;;;;;;4.82;2.53;;;;;;;17.72;56.26;100620.34;4174084;28;20076;-61
2022/05/22 05:13:48;;;;;;;5.07;2.38;;;;;;;17.80;55.92;100629.00;4158516;28;20559;-61
2022/05/22 05:16:02;;;;;;;6.53;2.95;;;;;;;17.83;55.76;100635.13;4175538;28;20036;-61
2022/05/22 05:18:10;;;;;;;6.22;2.80;;;;;;;17.86;55.64;100638.59;4195600;28;20076;-61
2022/05/22 05:20:17;;;;;;;5.68;3.15;;;;;;;17.92;55.42;100630.66;4171708;28;20033;-61
2022/05/22 05:22:26;;;;;;;7.00;3.15;;;;;;;17.95;55.40;100630.59;4171599;28;20045;-61
2022/05/22 05:24:39;;;;;;;8.38;3.20;;;;;;;17.93;55.57;100628.88;4171385;28;20033;-61
2022/05/22 05:26:45;;;;;;;9.00;2.88;;;;;;;17.90;55.60;100621.03;4166240;28;20049;-61
2022/05/22 05:28:50;;;;;;;5.00;2.60;;;;;;;17.97;55.42;100620.06;4169962;28;20061;-61
2022/05/22 05:31:04;;;;;;;7.05;3.25;;;;;;;17.98;55.28;100624.44;4171388;28;20053;-61
2022/05/22 05:33:08;;;;;;;9.45;2.50;;;;;;;18.04;55.29;100634.88;4161311;28;20041;-61
2022/05/22 05:35:34;;;;;;;5.13;2.47;;;;;;;18.09;55.27;100638.31;4175419;28;20079;-61
2022/05/22 05:37:41;;;;;;;6.40;2.45;;;;;;;18.12;55.23;100640.00;4170362;28;20152;-61
2022/05/22 05:39:49;;;;;;;7.80;2.90;;;;;;;18.14;55.37;100646.16;4177023;28;20036;-61
2022/05/22 05:42:05;;;;;;;8.52;3.40;;;;;;;18.21;54.74;100647.78;4172452;28;20084;-61
2022/05/22 05:44:10;;;;;;;5.13;2.88;;;;;;;18.21;54.76;100647.78;4171167;28;20495;-61
2022/05/22 05:46:25;;;;;;;7.20;3.45;;;;;;;18.25;54.55;100649.50;4178697;28;20051;-61
2022/05/22 05:48:28;;;;;;;;;;;;;;;18.08;55.09;100654.13;4172800;28;20132;-61
2022/05/22 05:50:32;;;;;;;7.65;3.78;;;;;;;18.04;55.26;100655.91;4172616;28;19991;-61
2022/05/22 05:52:38;;;;;;;8.38;3.45;;;;;;;18.18;55.19;100662.75;4172125;28;20105;-61
2022/05/22 05:55:04;;;;;;;6.18;3.10;;;;;;;18.25;54.82;100664.41;4152556;28;20044;-61
2022/05/22 05:57:25;;;;;;;7.07;4.43;;;;;;;18.28;54.38;100656.44;4176560;28;20114;-61
2022/05/22 05:59:33;;;;;;;9.80;4.07;;;;;;;18.37;54.38;100650.19;4175920;28;20048;-61
2022/05/22 06:01:53;;;;;;;10.07;3.60;;;;;;;18.37;54.57;100653.72;4174867;28;20029;-61
2022/05/22 06:03:56;;;;;;;9.93;3.50;;;;;;;18.35;54.82;100658.09;4173014;28;20564;-61
2022/05/22 06:05:59;;;;;;;7.68;3.63;;;;;;;18.38;54.45;100652.78;4170000;28;20064;-62
2022/05/22 06:08:05;;;;;;;9.23;3.15;;;;;;;18.41;54.29;100655.41;4178277;28;20047;-62
2022/05/22 06:10:11;;;;;;;7.18;3.50;;;;;;;18.46;54.46;100643.03;4179313;28;20039;-62
2022/05/22 06:12:27;;;;;;;7.40;3.80;;;;;;;18.50;54.26;100649.13;4172811;28;20044;-61
2022/05/22 06:14:35;;;;;;;12.38;4.20;;;;;;;18.45;54.12;100651.81;4179188;28;20075;-63
2022/05/22 06:16:39;;;;;;;9.65;4.20;;;;;;;18.41;53.50;100639.63;4175108;28;20041;-67
2022/05/22 06:18:47;;;;;;;9.07;4.30;;;;;;;18.30;53.68;100646.78;4173721;28;20398;-67
2022/05/22 06:20:50;;;;;;;7.13;4.00;;;;;;;18.20;53.77;100651.31;4173002;28;20033;-66
2022/05/22 06:22:58;;;;;;;13.52;5.18;;;;;;;18.07;54.49;100655.00;4176047;28;20029;-66
2022/05/22 06:25:19;;;;;;;8.68;5.03;;;;;;;18.02;54.29;100651.56;4189404;28;20513;-66
2022/05/22 06:27:48;;;;;;;9.15;4.53;;;;;;;17.99;54.58;100651.59;4178729;28;20091;-66
2022/05/22 06:30:12;;;;;;;8.15;4.97;;;;;;;17.98;54.56;100658.63;4165813;28;20092;-66
2022/05/22 06:32:34;;;;;;;8.00;4.38;;;;;;;17.99;55.16;100649.84;4164055;28;20405;-66
2022/05/22 06:35:01;;;;;;;7.80;4.85;;;;;;;18.05;54.92;100651.53;4152529;28;20076;-66
2022/05/22 06:37:20;;;;;;;7.03;4.65;;;;;;;18.13;54.70;100652.28;4146302;28;20408;-66
2022/05/22 06:39:53;;;;;;;8.02;4.97;;;;;;;18.07;54.98;100650.59;4167850;28;20035;-66
2022/05/22 06:42:30;;;;;;;7.47;4.53;;;;;;;18.12;54.58;100656.69;4168037;28;20037;-66
2022/05/22 06:44:33;;;;;;;9.00;5.47;;;;;;;18.11;54.39;100654.94;4180327;28;20037;-66
2022/05/22 06:46:59;;;;;;;9.93;6.53;;;;;;;18.34;53.14;100653.75;4159807;28;20498;-66
2022/05/22 06:49:08;;;;;;;10.93;6.05;;;;;;;18.34;52.93;100659.03;4172911;28;20048;-65
2022/05/22 06:51:26;;;;;;;7.03;4.60;;;;;;;18.29;53.69;100648.53;4170980;28;20041;-65
2022/05/22 06:53:57;;;;;;;8.50;4.97;;;;;;;18.23;55.09;100653.03;4170464;28;20045;-65
2022/05/22 06:56:29;;;;;;;8.57;4.82;;;;;;;18.22;55.09;100659.19;4145518;28;20093;-65
2022/05/22 06:58:38;;;;;;;9.48;5.63;;;;;;;18.12;54.85;100655.78;4179812;28;20407;-65
2022/05/22 07:01:00;;;;;;;10.27;6.28;;;;;;;18.19;54.84;100661.84;4178990;28;20107;-65
2022/05/22 07:03:21;;;;;;;10.65;5.43;;;;;;;18.36;54.33;100659.00;4178021;28;20483;-65
2022/05/22 07:05:47;;;;;;;9.05;5.18;;;;;;;18.35;54.78;100662.50;4157548;28;20046;-65
2022/05/22 07:08:10;;;;;;;8.75;5.60;;;;;;;18.28;54.85;100653.81;4180268;28;20155;-65
2022/05/22 07:13:08;;;;;;;8.88;5.20;;;;;;;18.39;54.18;100646.66;4179374;28;20063;-64
2022/05/22 07:15:31;;;;;;;13.18;7.22;;;;;;;18.64;53.23;100639.22;4162403;28;20491;-64
2022/05/22 07:18:09;;;;;;;9.88;5.32;;;;;;;18.75;53.47;100638.16;4154519;28;20050;-65
2022/05/22 07:20:29;;;;;;;8.80;5.72;;;;;;;18.75;53.53;100635.53;4164449;28;20089;-65
2022/05/22 07:22:52;;;;;;;12.18;6.60;;;;;;;18.89;52.86;100630.09;4164976;28;20527;-64
2022/05/22 07:25:12;;;;;;;11.45;5.70;;;;;;;19.01;53.19;100629.84;4165299;28;20038;-64
2022/05/22 07:27:34;;;;;;;12.18;5.22;;;;;;;18.95;54.24;100636.13;4174603;28;20041;-65
2022/05/22 07:30:00;;;;;;;10.23;4.50;;;;;;;18.94;54.00;100628.22;4165238;28;20506;-64
2022/05/22 07:32:30;;;;;;;9.55;5.45;;;;;;;18.97;53.63;100623.78;4165228;28;20041;-64
2022/05/22 07:35:08;;;;;;;8.40;4.50;;;;;;;19.00;54.13;100615.81;4174486;28;20034;-65
2022/05/22 07:37:30;;;;;;;12.02;4.78;;;;;;;19.06;54.33;100611.34;4166282;28;20045;-64
2022/05/22 07:40:02;;;;;;;9.65;4.43;;;;;;;19.21;54.23;100611.03;4172013;28;20045;-64
2022/05/22 07:42:24;;;;;;;8.90;4.85;;;;;;;19.23;53.31;100605.75;4174485;28;20040;-64
2022/05/22 07:44:46;;;;;;;12.55;5.22;;;;;;;19.31;52.66;100603.84;4181601;28;20072;-64
2022/05/22 07:47:06;;;;;;;10.90;6.63;;;;;;;19.45;51.83;100596.53;4164857;28;20060;-64
2022/05/22 07:52:24;;;;;;;15.43;7.07;;;;;;;19.68;50.46;100595.16;4135489;28;20044;-64
2022/05/22 07:54:45;;;;;;;10.90;6.55;;;;;;;19.74;50.95;100592.38;4182635;28;20075;-64
2022/05/22 07:57:08;;;;;;;10.98;5.82;;;;;;;19.79;50.74;100590.56;4182643;28;20037;-64
2022/05/22 07:59:49;;;;;;;12.80;7.95;;;;;;;19.92;50.38;100598.19;4187622;28;20575;-64
2022/05/22 08:02:16;;;;;;;13.13;6.85;;;;;;;19.99;49.83;100586.59;4182416;28;20103;-64
2022/05/22 08:04:23;;;;;;;10.13;6.80;;;;;;;20.11;49.66;100575.78;4163704;28;20050;-64
2022/05/22 08:06:44;;;;;;;11.93;6.68;;;;;;;19.95;49.41;100582.31;4174135;28;20046;-64
2022/05/22 08:08:56;;;;;;;11.30;6.13;;;;;;;19.93;49.52;100578.81;4163858;28;20049;-64
2022/05/22 08:11:06;;;;;;;11.02;5.80;;;;;;;20.02;50.15;100576.84;4178612;28;20037;-64
2022/05/22 08:13:23;;;;;;;11.52;6.05;;;;;;;20.16;50.31;100579.16;4163519;28;20037;-64
2022/05/22 08:15:30;;;;;;;13.80;8.05;;;;;;;20.42;48.69;100567.09;4181564;28;20045;-64
2022/05/22 08:17:48;;;;;;;12.15;7.90;;;;;;;20.53;47.31;100570.34;4164346;28;20128;-64
2022/05/22 08:19:52;;;;;;;12.50;8.23;;;;;;;20.54;47.12;100561.50;4164425;28;20065;-64
2022/05/22 08:22:03;;;;;;;15.13;6.63;;;;;;;20.44;48.13;100562.63;4164543;28;20042;-64
2022/05/22 08:24:25;;;;;;;10.43;6.60;;;;;;;20.40;48.34;100551.31;4165627;28;20093;-64
2022/05/22 08:26:33;;;;;;;11.85;7.95;;;;;;;20.56;47.54;100549.13;4164469;28;20061;-64
2022/05/22 08:28:36;;;;;;;10.80;7.00;;;;;;;20.64;47.14;100550.72;4177719;28;20037;-64
2022/05/22 08:30:43;;;;;;;14.30;8.18;;;;;;;20.73;46.21;100539.94;4169805;28;20041;-64
2022/05/22 08:32:49;;;;;;;16.17;8.23;;;;;;;20.71;47.10;100544.41;4147937;28;20052;-64
2022/05/22 08:34:53;;;;;;;15.95;7.22;;;;;;;20.70;46.70;100540.88;4165450;28;20046;-64
2022/05/22 08:36:56;;;;;;;8.90;4.78;;;;;;;20.65;47.88;100548.03;4178708;28;20166;-64
2022/05/22 08:38:58;;;;;;;11.45;5.75;;;;;;;20.73;48.03;100537.28;4187140;28;20051;-64
2022/05/22 08:41:10;;;;;;;10.48;4.78;;;;;;;20.83;48.39;100546.69;4180537;28;20039;-64
2022/05/22 08:43:16;;;;;;;12.38;6.63;;;;;;;20.96;47.44;100539.31;4166678;28;20052;-64
2022/05/22 08:45:21;;;;;;;11.07;6.63;;;;;;;21.05;46.09;100532.91;4165272;28;20041;-64
2022/05/22 08:47:32;;;;;;;11.85;6.95;;;;;;;21.16;45.64;100538.75;4169265;28;20052;-64
2022/05/22 08:49:40;;;;;;;9.50;5.10;;;;;;;21.13;46.28;100544.13;4178515;28;20051;-64
2022/05/22 08:51:47;;;;;;;11.65;7.40;;;;;;;21.31;45.28;100542.72;4165086;28;20409;-65
2022/05/22 08:53:53;;;;;;;9.85;6.35;;;;;;;21.23;45.10;100535.03;4175130;28;20375;-64
2022/05/22 09:00:47;;;;;;;12.32;7.10;;;;;;;21.55;44.08;100533.25;4179784;28;20029;-65
2022/05/22 09:03:00;;;;;;;12.35;4.97;;;;;;;21.38;44.43;100524.91;4163632;28;20123;-64
2022/05/22 09:05:07;;;;;;;11.35;5.85;;;;;;;21.37;45.11;100526.69;4162993;28;20125;-64
2022/05/22 09:07:19;;;;;;;10.23;5.05;;;;;;;21.44;45.82;100522.94;4181334;28;20041;-64
2022/05/22 09:09:28;;;;;;;10.35;4.85;;;;;;;21.65;45.44;100523.22;4164658;28;20046;-64
2022/05/22 09:11:41;;;;;;;8.45;4.80;;;;;;;21.65;45.50;100525.03;4168366;28;20075;-64
2022/05/22 09:13:51;;;;;;;9.02;5.47;;;;;;;21.69;45.97;100521.38;4178245;28;20049;-64
2022/05/22 09:16:01;;;;;;;7.90;4.82;;;;;;;21.73;44.92;100517.72;4164814;28;20060;-64
2022/05/22 09:18:14;;;;;;;7.90;4.18;;;;;;;21.87;44.63;100512.84;4163236;28;20526;-64
2022/05/22 09:20:20;;;;;;;6.32;3.80;;;;;;;22.06;44.86;100504.31;4163540;28;20041;-64
2022/05/22 09:22:26;;;;;;;9.80;5.22;;;;;;;22.26;44.20;100501.00;4163502;28;20049;-64
2022/05/22 09:24:45;;;;;;;8.00;4.80;;;;;;;22.20;43.61;100495.91;4163533;28;20038;-64
2022/05/22 09:26:59;;;;;;;11.48;5.35;;;;;;;22.25;43.06;100493.97;4177763;28;20665;-64
2022/05/22 09:29:08;;;;;;;13.00;4.57;;;;;;;22.20;44.36;100493.28;4165993;28;20049;-64
2022/05/22 09:31:20;;;;;;;8.82;3.88;;;;;;;22.17;43.81;100485.44;4146922;28;20040;-64
2022/05/22 09:33:35;;;;;;;9.63;4.20;;;;;;;22.24;43.63;100486.94;4164459;28;20049;-64
2022/05/22 09:35:49;;;;;;;5.95;3.58;;;;;;;22.25;43.04;100484.25;4178846;28;20060;-64
2022/05/22 09:38:07;;;;;;;6.35;2.90;;;;;;;22.40;43.18;100479.34;4146735;28;20077;-64
2022/05/22 09:40:24;;;;;;;6.38;3.30;;;;;;;22.41;41.69;100478.44;4173828;28;20052;-64
2022/05/22 09:42:40;;;;;;;5.55;2.97;;;;;;;22.45;41.36;100480.06;4172856;28;20129;-64
2022/05/22 09:45:01;;;;;;;6.03;3.03;;;;;;;22.49;42.00;100476.41;4180936;28;20041;-64
2022/05/22 09:47:38;;;;;;;6.57;2.92;;;;;;;22.58;41.27;100476.06;4180820;28;20080;-64
2022/05/22 09:50:06;;;;;;;9.52;3.95;;;;;;;22.60;40.67;100468.91;4150564;28;20053;-64
2022/05/22 09:52:17;;;;;;;5.75;2.60;;;;;;;22.61;40.81;100467.16;4172285;28;20128;-64
2022/05/22 09:54:37;;;;;;;7.00;2.40;;;;;;;22.72;40.91;100472.06;4180834;28;20376;-64
2022/05/22 09:57:10;;;;;;;5.82;2.40;;;;;;;22.78;39.61;100466.53;4180632;28;20048;-65
2022/05/22 09:59:32;;;;;;;3.45;1.95;;;;;;;22.80;38.85;100464.72;4177615;28;20052;-64
2022/05/22 10:01:40;;;;;;;6.10;2.30;;;;;;;22.71;38.63;100460.59;4172916;28;20147;-65
2022/05/22 10:03:55;;;;;;;4.97;2.00;;;;;;;22.61;38.46;100451.25;4179391;28;20044;-65
2022/05/22 10:06:10;;;;;;;3.95;1.85;;;;;;;22.79;38.26;100455.00;4180798;28;20037;-65
2022/05/22 10:08:30;;;;;;;4.72;2.40;;;;;;;23.06;37.50;100454.94;4180199;28;20041;-65
2022/05/22 10:10:40;;;;;;;6.38;2.50;;;;;;;23.17;37.74;100453.63;4177940;28;20120;-65
2022/05/22 10:12:52;;;;;;;4.47;1.80;;;;;;;23.29;37.43;100456.72;4174209;28;20533;-65
2022/05/22 10:15:08;;;;;;;5.07;2.08;;;;;;;23.26;37.49;100452.41;4170854;28;20051;-65
2022/05/22 10:17:27;;;;;;;4.72;1.95;;;;;;;23.37;37.91;100456.44;4179415;28;20051;-65
2022/05/22 10:19:43;;;;;;;5.15;1.90;;;;;;;23.38;37.41;100445.75;4180400;28;20501;-65
2022/05/22 10:21:52;;;;;;;4.15;1.92;;;;;;;23.46;36.25;100442.78;4177853;28;20045;-65
2022/05/22 10:24:07;;;;;;;8.35;2.00;;;;;;;23.62;34.29;100446.56;4172109;28;20044;-65